Time;durP1;ratioP1;P1;durP2;ratioP2;P2;SDS_P1;SDS_P2;PMS_P1;PMS_P2;Temp;Humidity;BMP_temperature;BMP_pressure;BME280_temperature;BME280_humidity;BME280_pressure;Samples;Min_cycle;Max_cycle;Signal;HPM_P1;HPM_P2
2023/08/22 00:01:56;;;;;;;8.77;3.53;;;;;;;20.73;100.00;101964.44;5232857;28;20056;-76
2023/08/22 00:04:27;;;;;;;7.47;3.83;;;;;;;20.78;100.00;101972.03;5227338;28;20169;-75
2023/08/22 00:06:59;;;;;;;8.30;3.83;;;;;;;20.88;100.00;101966.72;5231589;28;20049;-77
2023/08/22 00:09:30;;;;;;;9.63;3.90;;;;;;;21.07;100.00;101981.16;5232346;28;20555;-76
2023/08/22 00:12:01;;;;;;;6.40;4.03;;;;;;;20.93;100.00;101983.16;5232264;28;20048;-77
2023/08/22 00:14:33;;;;;;;7.57;3.40;;;;;;;21.08;100.00;101972.19;5201207;28;20633;-76
2023/08/22 00:17:04;;;;;;;6.67;3.90;;;;;;;21.03;100.00;101984.06;5232457;28;20029;-77
2023/08/22 00:19:36;;;;;;;7.53;4.33;;;;;;;21.06;100.00;101976.78;5231752;28;20036;-76
2023/08/22 00:22:07;;;;;;;7.47;3.50;;;;;;;20.92;100.00;101969.03;5232612;28;20029;-76
2023/08/22 00:24:40;;;;;;;9.80;4.00;;;;;;;21.14;100.00;101966.31;5214646;28;20022;-76
2023/08/22 00:27:12;;;;;;;9.73;4.20;;;;;;;20.88;100.00;101964.06;5238403;28;20029;-75
2023/08/22 00:29:43;;;;;;;10.10;4.27;;;;;;;20.72;100.00;101968.06;5222405;28;20025;-76
2023/08/22 00:32:14;;;;;;;7.13;3.77;;;;;;;20.52;100.00;101959.97;5252699;28;20032;-77
2023/08/22 00:34:46;;;;;;;9.87;4.97;;;;;;;20.53;100.00;101968.78;5232278;28;20030;-75
2023/08/22 00:37:19;;;;;;;9.80;3.77;;;;;;;20.78;100.00;101972.03;5238059;28;20025;-76
2023/08/22 00:39:50;;;;;;;9.30;5.37;;;;;;;20.41;100.00;101970.69;5226264;28;20612;-74
2023/08/22 00:42:21;;;;;;;7.83;4.53;;;;;;;20.86;100.00;101961.53;5217636;28;20023;-76
2023/08/22 00:44:56;;;;;;;9.57;4.77;;;;;;;20.67;100.00;101964.94;5238888;28;20032;-76
2023/08/22 00:47:27;;;;;;;8.77;4.57;;;;;;;20.79;100.00;101960.38;5239268;28;20105;-76
2023/08/22 00:49:58;;;;;;;9.10;4.80;;;;;;;20.80;100.00;101959.44;5239147;28;20108;-76
2023/08/22 00:52:31;;;;;;;11.37;5.07;;;;;;;20.57;100.00;101961.38;5252364;28;20039;-76
2023/08/22 00:55:02;;;;;;;6.67;4.57;;;;;;;20.58;100.00;101953.28;5231916;28;20459;-76
2023/08/22 00:57:34;;;;;;;9.27;5.20;;;;;;;20.78;100.00;101950.72;5250590;28;20028;-76
2023/08/22 01:00:07;;;;;;;8.63;5.20;;;;;;;20.76;100.00;101953.53;5243434;28;20029;-76
2023/08/22 01:02:39;;;;;;;7.22;4.43;;;;;;;20.57;100.00;101953.41;5238991;28;20033;-76
2023/08/22 01:05:10;;;;;;;9.23;4.57;;;;;;;20.77;100.00;101944.53;5248913;28;20034;-76
2023/08/22 01:07:53;;;;;;;7.97;4.60;;;;;;;20.73;100.00;101948.47;5235623;28;20049;-75
2023/08/22 01:10:33;;;;;;;8.10;3.97;;;;;;;20.51;100.00;101944.97;5222723;28;20032;-76
2023/08/22 01:13:14;;;;;;;12.77;4.67;;;;;;;20.65;100.00;101938.47;5301255;23;20110;-76
2023/08/22 01:15:47;;;;;;;7.83;4.40;;;;;;;20.42;100.00;101948.44;5261050;28;20033;-77
2023/08/22 01:18:18;;;;;;;10.27;5.60;;;;;;;20.70;100.00;101948.72;5256620;28;20040;-77
2023/08/22 01:20:50;;;;;;;10.43;4.43;;;;;;;20.58;100.00;101955.94;5239756;28;20025;-76
2023/08/22 01:23:21;;;;;;;13.70;5.77;;;;;;;20.46;100.00;101962.28;5238209;28;20904;-78
2023/08/22 01:25:52;;;;;;;6.40;4.37;;;;;;;20.48;100.00;101953.22;5257327;28;20025;-77
2023/08/22 01:28:26;;;;;;;10.40;4.77;;;;;;;20.70;100.00;101955.88;5256350;28;20029;-76
2023/08/22 01:31:09;;;;;;;12.52;5.63;;;;;;;20.43;100.00;101937.66;5256159;28;20406;-76
2023/08/22 01:34:06;;;;;;;10.10;4.60;;;;;;;20.79;100.00;101934.63;5256664;28;20044;-75
2023/08/22 01:36:38;;;;;;;9.60;4.60;;;;;;;20.29;100.00;101930.84;5250839;28;20041;-76
2023/08/22 01:39:10;;;;;;;6.63;4.57;;;;;;;20.51;100.00;101931.66;5255807;28;20086;-76
2023/08/22 01:41:42;;;;;;;8.70;4.70;;;;;;;20.20;100.00;101931.63;5256718;28;20048;-76
2023/08/22 01:44:13;;;;;;;9.33;5.20;;;;;;;20.26;100.00;101933.78;5256517;28;20040;-77
2023/08/22 01:46:44;;;;;;;9.40;4.53;;;;;;;20.18;100.00;101939.72;5256182;28;20498;-77
2023/08/22 01:49:16;;;;;;;5.97;3.80;;;;;;;20.14;100.00;101926.81;5255477;28;20021;-77
2023/08/22 01:51:47;;;;;;;8.87;5.07;;;;;;;20.10;100.00;101936.03;5256169;28;20139;-74
2023/08/22 01:54:19;;;;;;;11.17;4.37;;;;;;;20.36;100.00;101940.97;5256285;28;20079;-77
2023/08/22 01:56:50;;;;;;;10.73;5.00;;;;;;;20.31;100.00;101934.22;5254535;28;20031;-76
2023/08/22 01:59:21;;;;;;;7.40;4.43;;;;;;;20.07;100.00;101927.31;5256738;28;20055;-77
2023/08/22 02:01:52;;;;;;;11.77;5.60;;;;;;;20.06;100.00;101925.66;5256586;28;20405;-76
2023/08/22 02:04:24;;;;;;;9.63;5.23;;;;;;;20.34;100.00;101933.13;5256499;28;20037;-76
2023/08/22 02:06:55;;;;;;;8.93;5.70;;;;;;;20.39;100.00;101933.56;5259419;28;20100;-73
2023/08/22 02:09:26;;;;;;;8.57;4.97;;;;;;;20.43;100.00;101927.03;5259258;28;20029;-75
2023/08/22 02:11:58;;;;;;;11.10;5.70;;;;;;;20.32;100.00;101924.41;5246051;28;20056;-75
2023/08/22 02:14:29;;;;;;;7.77;4.63;;;;;;;20.21;100.00;101925.34;5239682;28;20032;-78
2023/08/22 02:17:00;;;;;;;8.90;5.13;;;;;;;20.34;100.00;101932.25;5258656;28;20424;-75
2023/08/22 02:19:31;;;;;;;7.40;5.17;;;;;;;20.11;100.00;101925.25;5257768;28;20108;-76
2023/08/22 02:22:03;;;;;;;11.00;4.77;;;;;;;20.17;100.00;101916.78;5257755;28;20024;-77
2023/08/22 02:24:34;;;;;;;6.50;4.30;;;;;;;19.90;100.00;101912.75;5239412;28;20051;-76
2023/08/22 02:27:06;;;;;;;7.77;4.37;;;;;;;20.03;100.00;101909.06;5256018;28;20082;-77
2023/08/22 02:29:37;;;;;;;6.10;4.47;;;;;;;20.16;100.00;101909.75;5238574;28;20052;-74
2023/08/22 02:32:08;;;;;;;7.67;4.83;;;;;;;20.24;100.00;101911.78;5255628;28;20102;-76
2023/08/22 02:34:40;;;;;;;10.50;5.37;;;;;;;20.21;100.00;101912.03;5255566;28;20028;-76
2023/08/22 02:37:11;;;;;;;11.27;4.70;;;;;;;20.22;100.00;101913.72;5255927;28;20032;-75
2023/08/22 02:39:42;;;;;;;9.27;3.97;;;;;;;20.09;100.00;101913.91;5256166;28;20035;-77
2023/08/22 02:42:13;;;;;;;9.67;3.83;;;;;;;20.09;100.00;101908.56;5258448;28;20100;-77
2023/08/22 02:44:45;;;;;;;8.57;5.13;;;;;;;20.11;100.00;101900.50;5267150;28;20019;-77
2023/08/22 02:47:18;;;;;;;7.87;4.83;;;;;;;20.16;100.00;101903.63;5255283;28;20112;-75
2023/08/22 02:49:49;;;;;;;8.63;4.67;;;;;;;19.91;100.00;101908.28;5255098;28;20025;-76
2023/08/22 02:52:21;;;;;;;7.13;4.40;;;;;;;20.16;100.00;101908.94;5254716;28;20241;-76
2023/08/22 02:54:52;;;;;;;11.50;5.20;;;;;;;20.28;100.00;101913.19;5255665;28;20083;-76
2023/08/22 02:57:24;;;;;;;7.43;4.53;;;;;;;20.01;100.00;101909.22;5255034;28;20029;-75
2023/08/22 02:59:55;;;;;;;7.33;4.73;;;;;;;19.94;100.00;101914.19;5255014;28;20021;-76
2023/08/22 03:02:26;;;;;;;9.77;5.57;;;;;;;19.79;100.00;101899.53;5236754;28;20032;-76
2023/08/22 03:04:58;;;;;;;8.07;4.97;;;;;;;20.09;100.00;101913.06;5254233;28;20078;-75
2023/08/22 03:07:29;;;;;;;8.67;4.97;;;;;;;19.88;100.00;101900.56;5254953;28;20191;-77
2023/08/22 03:10:00;;;;;;;9.83;5.20;;;;;;;19.87;100.00;101909.50;5254353;28;20394;-76
2023/08/22 03:12:32;;;;;;;10.33;5.27;;;;;;;19.70;100.00;101915.28;5254547;28;20057;-75
2023/08/22 03:15:04;;;;;;;9.57;4.97;;;;;;;19.71;100.00;101913.44;5236947;28;20134;-77
2023/08/22 03:17:35;;;;;;;11.10;5.40;;;;;;;19.79;100.00;101913.63;5254811;28;20029;-76
2023/08/22 03:20:07;;;;;;;7.50;5.00;;;;;;;19.64;100.00;101921.06;5235221;28;20090;-76
2023/08/22 03:22:39;;;;;;;9.17;5.13;;;;;;;19.70;100.00;101917.06;5255062;28;20025;-76
2023/08/22 03:25:10;;;;;;;12.63;5.00;;;;;;;19.61;100.00;101910.69;5254344;28;20074;-76
2023/08/22 03:27:41;;;;;;;9.17;5.17;;;;;;;19.70;100.00;101909.94;5254806;28;20029;-76
2023/08/22 03:30:13;;;;;;;6.87;5.03;;;;;;;19.63;100.00;101903.44;5236480;28;20017;-75
2023/08/22 03:32:44;;;;;;;7.90;5.53;;;;;;;19.78;100.00;101893.34;5254373;28;20035;-76
2023/08/22 03:35:15;;;;;;;8.23;5.23;;;;;;;19.50;100.00;101913.38;5235366;28;20032;-75
2023/08/22 03:37:47;;;;;;;8.27;5.60;;;;;;;19.38;100.00;101912.56;5236727;28;20021;-75
2023/08/22 03:40:18;;;;;;;10.37;5.67;;;;;;;19.52;100.00;101906.13;5253865;28;20656;-77
2023/08/22 03:42:49;;;;;;;13.20;5.90;;;;;;;19.47;100.00;101903.84;5254276;28;20032;-75
2023/08/22 03:45:20;;;;;;;10.40;6.00;;;;;;;19.38;100.00;101894.81;5236040;28;20020;-76
2023/08/22 03:47:52;;;;;;;8.07;6.40;;;;;;;19.59;100.00;101908.16;5219869;28;20024;-76
2023/08/22 03:50:23;;;;;;;8.73;6.00;;;;;;;19.36;100.00;101912.69;5253479;28;20107;-76
2023/08/22 03:52:54;;;;;;;9.60;6.17;;;;;;;19.69;100.00;101908.25;5236083;28;20028;-76
2023/08/22 03:55:25;;;;;;;10.70;6.63;;;;;;;19.47;100.00;101909.16;5254059;28;20037;-76
2023/08/22 03:57:58;;;;;;;11.23;6.63;;;;;;;19.32;100.00;101912.09;5254030;28;20670;-73
2023/08/22 04:00:30;;;;;;;9.20;7.13;;;;;;;19.31;100.00;101909.56;5253593;28;20083;-76
2023/08/22 04:03:02;;;;;;;16.20;7.43;;;;;;;19.33;100.00;101900.50;5254043;28;20352;-77
2023/08/22 04:05:33;;;;;;;15.40;7.37;;;;;;;19.28;100.00;101907.16;5252849;28;20029;-76
2023/08/22 04:08:05;;;;;;;15.80;7.27;;;;;;;19.36;100.00;101903.91;5253913;28;20029;-75
2023/08/22 04:10:36;;;;;;;13.63;7.13;;;;;;;19.30;100.00;101906.09;5253992;28;20028;-76
2023/08/22 04:13:07;;;;;;;10.03;6.40;;;;;;;19.10;100.00;101905.81;5253078;28;20045;-76
2023/08/22 04:15:39;;;;;;;13.43;7.73;;;;;;;19.05;100.00;101900.03;5256385;28;20035;-76
2023/08/22 04:18:10;;;;;;;8.77;7.00;;;;;;;19.07;100.00;101905.22;5249434;28;20651;-75
2023/08/22 04:20:43;;;;;;;11.50;7.07;;;;;;;19.26;100.00;101899.31;5230564;28;20043;-76
2023/08/22 04:23:14;;;;;;;9.83;7.07;;;;;;;18.97;100.00;101899.81;5253756;28;20391;-77
2023/08/22 04:25:45;;;;;;;12.57;7.40;;;;;;;19.03;100.00;101901.97;5253446;28;20029;-76
2023/08/22 04:28:17;;;;;;;11.63;7.20;;;;;;;18.90;100.00;101895.94;5253512;28;20048;-76
2023/08/22 04:30:48;;;;;;;10.83;7.70;;;;;;;18.79;100.00;101889.69;5235393;28;20494;-76
2023/08/22 04:33:19;;;;;;;8.87;6.87;;;;;;;18.84;100.00;101898.13;5235018;28;20159;-75
2023/08/22 04:35:51;;;;;;;12.47;7.40;;;;;;;19.03;100.00;101891.34;5252891;28;20028;-75
2023/08/22 04:38:22;;;;;;;11.30;7.80;;;;;;;18.99;100.00;101900.50;5252975;28;20041;-76
2023/08/22 04:40:53;;;;;;;13.57;7.93;;;;;;;18.97;100.00;101902.47;5253423;28;20495;-75
2023/08/22 04:43:24;;;;;;;11.53;8.40;;;;;;;18.78;100.00;101895.94;5235089;28;20085;-77
2023/08/22 04:45:56;;;;;;;10.33;8.07;;;;;;;18.86;100.00;101895.34;5253183;28;20482;-75
2023/08/22 04:48:27;;;;;;;11.90;8.17;;;;;;;19.08;100.00;101905.09;5247480;28;20031;-76
2023/08/22 04:50:58;;;;;;;18.20;10.03;;;;;;;18.93;100.00;101893.06;5252141;28;20126;-74
2023/08/22 04:53:30;;;;;;;14.13;7.83;;;;;;;19.01;100.00;101906.56;5252798;28;20051;-76
2023/08/22 04:56:01;;;;;;;10.57;7.97;;;;;;;18.82;100.00;101907.16;5253082;28;20025;-77
2023/08/22 04:58:32;;;;;;;14.67;8.67;;;;;;;18.78;100.00;101903.91;5234849;28;20025;-77
2023/08/22 05:01:04;;;;;;;14.97;9.07;;;;;;;18.67;100.00;101893.28;5253235;28;20107;-77
2023/08/22 05:03:35;;;;;;;12.67;8.30;;;;;;;18.61;100.00;101913.19;5253495;28;20132;-76
2023/08/22 05:06:06;;;;;;;9.97;7.93;;;;;;;18.98;100.00;101906.81;5251822;28;20033;-76
2023/08/22 05:08:38;;;;;;;11.53;8.20;;;;;;;18.78;100.00;101911.84;5253327;28;20544;-76
2023/08/22 05:11:09;;;;;;;13.23;8.27;;;;;;;18.88;100.00;101919.97;5252412;28;20472;-76
2023/08/22 05:13:40;;;;;;;11.63;8.40;;;;;;;18.95;100.00;101902.59;5253109;28;20125;-76
2023/08/22 05:16:11;;;;;;;12.43;7.90;;;;;;;18.74;100.00;101902.47;5251176;28;20037;-76
2023/08/22 05:18:43;;;;;;;14.43;8.93;;;;;;;18.88;100.00;101911.16;5241123;28;20265;-77
2023/08/22 05:21:14;;;;;;;13.37;8.57;;;;;;;18.77;100.00;101912.84;5253003;28;20083;-76
2023/08/22 05:23:45;;;;;;;10.27;8.60;;;;;;;18.91;100.00;101906.44;5226889;28;20407;-74
2023/08/22 05:26:17;;;;;;;17.67;10.20;;;;;;;19.17;100.00;101906.22;5248445;28;20031;-76
2023/08/22 05:28:48;;;;;;;13.10;9.73;;;;;;;19.12;100.00;101908.38;5253554;28;20120;-77
2023/08/22 05:31:21;;;;;;;12.97;9.57;;;;;;;19.01;100.00;101903.91;5252441;28;20036;-75
2023/08/22 05:33:52;;;;;;;11.20;9.50;;;;;;;18.88;100.00;101908.50;5256170;28;20428;-76
2023/08/22 05:36:24;;;;;;;11.67;9.20;;;;;;;18.99;100.00;101905.81;5256850;28;20025;-76
2023/08/22 05:38:55;;;;;;;14.23;9.53;;;;;;;18.92;100.00;101908.13;5257036;28;20032;-78
2023/08/22 05:41:26;;;;;;;12.00;9.20;;;;;;;18.95;100.00;101899.09;5256838;28;20033;-76
2023/08/22 05:43:57;;;;;;;23.27;9.90;;;;;;;19.00;100.00;101891.59;5237940;28;20029;-77
2023/08/22 05:46:29;;;;;;;11.17;8.40;;;;;;;19.04;100.00;101894.84;5256714;28;20028;-74
2023/08/22 05:49:00;;;;;;;12.17;9.03;;;;;;;18.96;100.00;101895.44;5255612;28;20526;-75
2023/08/22 05:51:31;;;;;;;15.00;9.83;;;;;;;19.32;100.00;101898.81;5256477;28;20079;-76
2023/08/22 05:54:03;;;;;;;14.07;9.23;;;;;;;19.22;100.00;101905.81;5256646;28;20064;-77
2023/08/22 05:56:34;;;;;;;15.07;9.20;;;;;;;19.30;100.00;101914.06;5257243;28;20078;-76
2023/08/22 05:59:05;;;;;;;14.63;9.13;;;;;;;19.29;100.00;101911.50;5256217;28;20706;-77
2023/08/22 06:01:37;;;;;;;14.97;9.97;;;;;;;19.27;100.00;101903.66;5228990;28;20175;-80
2023/08/22 06:04:08;;;;;;;13.23;9.00;;;;;;;19.36;100.00;101907.38;5255196;28;20090;-79
2023/08/22 06:06:39;;;;;;;10.43;7.93;;;;;;;19.43;100.00;101899.75;5257339;28;20017;-79
2023/08/22 06:09:11;;;;;;;12.77;9.00;;;;;;;19.33;100.00;101904.97;5254454;28;20032;-75
2023/08/22 06:11:42;;;;;;;13.10;8.50;;;;;;;19.44;100.00;101912.09;5237613;28;20067;-76
2023/08/22 06:14:14;;;;;;;13.57;8.47;;;;;;;19.52;100.00;101920.25;5234471;28;20041;-78
2023/08/22 06:16:45;;;;;;;12.40;8.40;;;;;;;19.61;100.00;101920.47;5255038;28;20028;-77
2023/08/22 06:19:16;;;;;;;11.77;8.80;;;;;;;19.66;100.00;101918.28;5255432;28;20115;-79
2023/08/22 06:21:48;;;;;;;12.93;7.50;;;;;;;19.82;100.00;101920.53;5252567;28;20024;-75
2023/08/22 06:24:19;;;;;;;11.33;7.87;;;;;;;19.82;100.00;101916.06;5252315;28;20910;-77
2023/08/22 06:26:50;;;;;;;17.33;8.60;;;;;;;19.86;100.00;101929.94;5255603;28;20036;-78
2023/08/22 06:29:22;;;;;;;12.83;6.70;;;;;;;19.85;100.00;101912.28;5255821;28;20031;-76
2023/08/22 06:31:53;;;;;;;13.27;7.10;;;;;;;19.90;100.00;101914.56;5243126;28;20033;-74
2023/08/22 06:34:24;;;;;;;12.27;7.33;;;;;;;19.99;100.00;101918.28;5253738;28;20032;-75
2023/08/22 06:36:56;;;;;;;12.37;6.53;;;;;;;19.88;100.00;101900.56;5254346;28;20021;-75
2023/08/22 06:39:27;;;;;;;9.27;6.40;;;;;;;20.04;100.00;101916.06;5254708;28;20025;-75
2023/08/22 06:41:58;;;;;;;11.40;7.13;;;;;;;20.05;100.00;101920.47;5236992;28;20021;-75
2023/08/22 06:44:30;;;;;;;9.17;6.20;;;;;;;20.12;100.00;101929.63;5254392;28;20629;-74
2023/08/22 06:47:02;;;;;;;10.57;6.90;;;;;;;20.01;100.00;101933.13;5255303;28;20074;-74
2023/08/22 06:49:33;;;;;;;14.80;6.17;;;;;;;20.05;100.00;101934.63;5254525;28;20032;-75
2023/08/22 06:52:05;;;;;;;7.23;5.43;;;;;;;20.14;100.00;101942.78;5255234;28;20029;-75
2023/08/22 06:54:36;;;;;;;9.80;5.27;;;;;;;20.19;100.00;101935.25;5255529;28;20020;-74
2023/08/22 06:57:08;;;;;;;13.47;6.57;;;;;;;20.37;100.00;101940.00;5255120;28;20067;-75
2023/08/22 06:59:40;;;;;;;13.97;6.50;;;;;;;20.44;100.00;101951.78;5220880;28;20021;-74
2023/08/22 07:02:11;;;;;;;7.03;4.07;;;;;;;20.58;100.00;101955.09;5254200;28;20086;-75
2023/08/22 07:04:42;;;;;;;6.00;3.33;;;;;;;20.62;100.00;101956.50;5248035;28;20025;-75
2023/08/22 07:07:14;;;;;;;5.43;2.97;;;;;;;20.70;100.00;101954.03;5255412;28;20056;-75
2023/08/22 07:09:48;;;;;;;5.30;2.90;;;;;;;20.87;100.00;101959.72;5254650;28;20021;-75
2023/08/22 07:12:20;;;;;;;6.07;3.40;;;;;;;20.95;100.00;101951.94;5232384;28;20660;-74
2023/08/22 07:14:51;;;;;;;5.13;3.37;;;;;;;21.07;100.00;101954.53;5254356;28;20037;-76
2023/08/22 07:17:23;;;;;;;6.00;2.97;;;;;;;21.13;100.00;101959.31;5254390;28;20027;-76
2023/08/22 07:19:54;;;;;;;5.53;2.73;;;;;;;21.21;100.00;101967.47;5230697;28;20032;-77
2023/08/22 07:22:25;;;;;;;4.73;2.23;;;;;;;21.22;100.00;101961.16;5252274;28;20024;-79
2023/08/22 07:24:57;;;;;;;7.80;2.13;;;;;;;21.30;100.00;101959.63;5254901;28;20021;-77
2023/08/22 07:27:28;;;;;;;6.80;2.87;;;;;;;21.49;100.00;101962.34;5255303;28;20025;-78
2023/08/22 07:29:59;;;;;;;7.22;2.35;;;;;;;21.49;100.00;101958.81;5254293;28;20172;-79
2023/08/22 07:32:31;;;;;;;6.03;2.97;;;;;;;21.59;100.00;101964.19;5254100;28;20029;-77
2023/08/22 07:35:02;;;;;;;8.33;3.63;;;;;;;21.70;100.00;101958.72;5235418;28;20072;-77
2023/08/22 07:37:34;;;;;;;9.02;3.78;;;;;;;21.88;100.00;101958.06;5254395;28;20025;-76
2023/08/22 07:40:06;;;;;;;9.52;4.80;;;;;;;21.95;100.00;101959.19;5250866;28;20064;-75
2023/08/22 07:42:37;;;;;;;10.45;4.22;;;;;;;22.01;100.00;101952.44;5245682;28;20435;-74
2023/08/22 07:45:09;;;;;;;13.20;5.07;;;;;;;22.06;100.00;101954.69;5254083;28;20021;-75
2023/08/22 07:47:40;;;;;;;12.43;5.63;;;;;;;22.35;100.00;101961.81;5254655;28;20115;-79
2023/08/22 07:50:11;;;;;;;7.95;5.07;;;;;;;22.31;100.00;101950.59;5260190;28;20044;-79
2023/08/22 07:52:43;;;;;;;9.15;4.70;;;;;;;22.66;100.00;101963.47;5229890;28;20074;-79
2023/08/22 07:55:14;;;;;;;15.60;7.18;;;;;;;22.64;100.00;101960.94;5253220;28;20631;-76
2023/08/22 07:57:46;;;;;;;12.50;6.07;;;;;;;22.67;100.00;101963.31;5253181;28;20029;-79
2023/08/22 08:00:18;;;;;;;12.82;6.20;;;;;;;22.58;100.00;101959.69;5253859;28;20095;-78
2023/08/22 08:02:49;;;;;;;16.17;6.38;;;;;;;22.59;100.00;101953.34;5235760;28;20017;-77
2023/08/22 08:05:21;;;;;;;8.70;5.43;;;;;;;22.58;100.00;101950.81;5246920;28;20033;-74
2023/08/22 08:07:52;;;;;;;10.35;5.10;;;;;;;22.65;100.00;101967.97;5249716;28;20029;-74
2023/08/22 08:10:24;;;;;;;12.15;5.20;;;;;;;22.62;100.00;101973.59;5253709;28;20695;-75
2023/08/22 08:12:55;;;;;;;11.10;5.18;;;;;;;22.62;100.00;101964.75;5235202;28;20056;-74
2023/08/22 08:15:26;;;;;;;13.40;5.55;;;;;;;22.54;100.00;101957.41;5253701;28;20493;-74
2023/08/22 08:18:01;;;;;;;9.65;4.60;;;;;;;22.53;100.00;101977.97;5252407;28;20071;-75
2023/08/22 08:20:32;;;;;;;;;;;;;;;22.96;100.00;101978.41;5251823;28;20345;-74
2023/08/22 08:23:03;;;;;;;9.50;4.38;;;;;;;22.64;100.00;101979.63;5252919;28;19917;-74
2023/08/22 08:25:34;;;;;;;10.13;4.40;;;;;;;22.60;100.00;101971.03;5252383;28;20021;-75
2023/08/22 08:28:06;;;;;;;7.78;4.60;;;;;;;22.52;100.00;101965.56;5252966;28;20033;-79
2023/08/22 08:30:37;;;;;;;7.90;3.90;;;;;;;22.68;100.00;101973.03;5252828;28;20083;-79
2023/08/22 08:33:09;;;;;;;9.90;4.03;;;;;;;22.61;100.00;101974.56;5234462;28;20489;-77
2023/08/22 08:35:40;;;;;;;9.68;4.20;;;;;;;22.63;100.00;101983.28;5252576;28;20060;-79
2023/08/22 08:38:11;;;;;;;9.40;4.47;;;;;;;22.78;100.00;101988.19;5252852;28;20025;-81
2023/08/22 08:40:45;;;;;;;9.25;4.00;;;;;;;22.86;100.00;101980.28;5235322;28;20061;-79
2023/08/22 08:43:21;;;;;;;8.38;4.22;;;;;;;22.86;100.00;101980.28;5234931;28;20495;-73
2023/08/22 08:45:53;;;;;;;10.95;4.47;;;;;;;22.79;100.00;101979.16;5235750;28;20029;-74
2023/08/22 08:48:25;;;;;;;8.18;3.90;;;;;;;22.79;100.00;101971.16;5244735;28;20115;-74
2023/08/22 08:51:02;;;;;;;13.32;5.88;;;;;;;22.98;100.00;101969.41;5252841;28;20033;-74
2023/08/22 08:53:33;;;;;;;12.57;5.15;;;;;;;22.88;100.00;101972.13;5252294;28;20709;-73
2023/08/22 08:56:09;;;;;;;10.40;4.68;;;;;;;22.94;100.00;101975.03;5241718;28;20033;-73
2023/08/22 08:58:41;;;;;;;8.70;4.53;;;;;;;23.02;100.00;101974.28;5253246;28;20116;-74
2023/08/22 09:01:13;;;;;;;9.65;5.15;;;;;;;23.13;100.00;101973.25;5253102;28;20057;-74
2023/08/22 09:03:44;;;;;;;6.35;4.35;;;;;;;23.18;100.00;101973.66;5252274;28;20021;-76
2023/08/22 09:06:16;;;;;;;11.13;4.22;;;;;;;23.13;100.00;101975.94;5254588;28;20028;-77
2023/08/22 09:09:08;;;;;;;10.20;3.75;;;;;;;23.51;100.00;101978.56;5257150;28;20029;-74
2023/08/22 09:11:49;;;;;;;11.38;3.88;;;;;;;23.38;100.00;101975.38;5238698;28;20028;-75
2023/08/22 09:14:21;;;;;;;11.55;5.15;;;;;;;23.34;100.00;101974.84;5257414;28;20049;-82
2023/08/22 09:16:52;;;;;;;9.32;5.22;;;;;;;23.29;100.00;101977.13;5257141;28;20047;-83
2023/08/22 09:19:23;;;;;;;14.10;5.43;;;;;;;23.38;100.00;101996.75;5253555;28;20020;-81
2023/08/22 09:21:57;;;;;;;13.70;5.00;;;;;;;23.39;100.00;101977.91;5238850;28;20029;-82
2023/08/22 09:24:30;;;;;;;18.40;6.72;;;;;;;23.47;100.00;101982.53;5256991;28;20112;-82
2023/08/22 09:27:05;;;;;;;14.85;6.63;;;;;;;23.54;100.00;101985.44;5257616;28;20103;-80
2023/08/22 09:29:36;;;;;;;12.10;6.80;;;;;;;23.66;100.00;101986.06;5235981;28;20192;-80
2023/08/22 09:32:08;;;;;;;13.00;7.30;;;;;;;23.58;100.00;101992.16;5257197;28;20112;-82
2023/08/22 09:34:53;;;;;;;19.35;8.82;;;;;;;23.50;100.00;101982.22;5257118;28;20448;-79
2023/08/22 09:37:35;;;;;;;12.70;7.30;;;;;;;23.54;100.00;101975.59;5257246;28;20029;-80
2023/08/22 09:40:10;;;;;;;12.27;6.20;;;;;;;23.76;100.00;101978.81;5261582;28;20036;-81
2023/08/22 09:42:41;;;;;;;13.75;7.25;;;;;;;23.73;100.00;101978.28;5260214;28;20051;-80
2023/08/22 09:45:17;;;;;;;14.32;7.88;;;;;;;23.92;100.00;101983.50;5258969;28;20021;-82
2023/08/22 09:47:53;;;;;;;13.45;6.93;;;;;;;24.09;100.00;101988.97;5256446;28;20131;-83
2023/08/22 09:50:27;;;;;;;17.23;7.70;;;;;;;24.11;100.00;101988.81;5259199;28;20111;-82
2023/08/22 09:53:00;;;;;;;11.70;6.22;;;;;;;24.35;100.00;101987.38;5259031;28;20047;-82
2023/08/22 09:55:33;;;;;;;9.68;6.47;;;;;;;24.25;98.59;101990.97;5258023;28;20025;-81
2023/08/22 09:58:06;;;;;;;12.43;5.85;;;;;;;24.33;96.00;101995.53;5256990;28;20043;-78
2023/08/22 10:00:37;;;;;;;12.27;6.07;;;;;;;24.38;92.02;101992.41;5256697;28;20114;-83
2023/08/22 10:03:11;;;;;;;8.85;6.18;;;;;;;24.36;94.50;101999.75;5255917;28;20033;-79
2023/08/22 10:05:44;;;;;;;13.63;7.28;;;;;;;24.29;93.07;101988.81;5238881;28;20495;-79
2023/08/22 10:08:16;;;;;;;9.27;5.22;;;;;;;24.28;93.73;101981.78;5256067;28;20474;-80
2023/08/22 10:10:47;;;;;;;10.82;4.65;;;;;;;24.53;95.79;101979.28;5256650;28;20028;-78
2023/08/22 10:13:21;;;;;;;11.98;5.95;;;;;;;24.59;89.64;101985.84;5237887;28;20083;-80
2023/08/22 10:15:52;;;;;;;6.93;3.92;;;;;;;24.57;80.00;101980.66;5256210;28;20104;-80
2023/08/22 10:18:24;;;;;;;7.65;3.67;;;;;;;24.75;76.39;101982.44;5253776;28;20692;-82
2023/08/22 10:20:56;;;;;;;6.70;2.40;;;;;;;24.95;76.45;101977.69;5255578;28;20029;-81
2023/08/22 10:23:52;;;;;;;5.63;2.88;;;;;;;25.16;76.70;101971.09;5255513;28;20033;-75
2023/08/22 10:26:27;;;;;;;4.68;2.22;;;;;;;25.12;69.67;101978.59;5239764;28;20029;-76
2023/08/22 10:29:18;;;;;;;4.80;2.30;;;;;;;25.31;69.32;101986.56;5249200;28;20028;-74
2023/08/22 10:32:01;;;;;;;6.45;3.08;;;;;;;25.21;69.98;101979.47;5237240;28;20024;-75
2023/08/22 10:34:39;;;;;;;7.97;2.78;;;;;;;25.18;70.51;101978.97;5236876;28;20040;-75
2023/08/22 10:37:14;;;;;;;7.55;2.30;;;;;;;25.23;70.53;101984.66;5255732;28;20031;-76
2023/08/22 10:39:47;;;;;;;5.72;2.13;;;;;;;25.45;71.17;101987.78;5251429;28;20037;-75
2023/08/22 10:42:23;;;;;;;6.47;2.33;;;;;;;25.92;66.94;101977.47;5237095;28;20147;-76
2023/08/22 10:44:56;;;;;;;4.13;2.60;;;;;;;26.45;63.80;101967.22;5255502;28;20025;-78
2023/08/22 10:47:32;;;;;;;7.35;2.25;;;;;;;26.52;59.08;101971.88;5254657;28;20021;-77
2023/08/22 10:50:10;;;;;;;6.32;1.52;;;;;;;26.58;59.23;101965.84;5236399;28;20480;-76
2023/08/22 10:52:44;;;;;;;7.65;2.13;;;;;;;26.81;59.21;101976.66;5242295;28;20029;-78
2023/08/22 10:55:19;;;;;;;8.10;2.47;;;;;;;26.59;56.13;101972.88;5236894;28;20115;-75
2023/08/22 10:57:54;;;;;;;7.63;2.00;;;;;;;26.96;56.90;101973.28;5254768;28;20092;-76
2023/08/22 11:00:25;;;;;;;3.75;1.98;;;;;;;27.44;59.09;101964.28;5254665;28;20064;-79
2023/08/22 11:02:58;;;;;;;8.15;2.30;;;;;;;27.17;56.73;101972.69;5236297;28;20056;-78
2023/08/22 11:05:30;;;;;;;7.90;2.78;;;;;;;27.30;54.22;101974.81;5254426;28;20024;-77
2023/08/22 11:08:05;;;;;;;6.97;2.20;;;;;;;27.22;56.74;101966.78;5236561;28;20720;-78
2023/08/22 11:10:38;;;;;;;7.32;2.45;;;;;;;26.95;56.35;101960.81;5254716;28;20025;-76
2023/08/22 11:13:09;;;;;;;4.68;1.92;;;;;;;26.98;52.91;101973.94;5254443;28;20116;-73
2023/08/22 11:15:42;;;;;;;8.23;2.42;;;;;;;26.98;55.79;101960.50;5252964;28;20029;-75
2023/08/22 11:18:13;;;;;;;5.78;2.05;;;;;;;26.91;56.52;101965.75;5232153;28;20398;-77
2023/08/22 11:20:53;;;;;;;7.50;1.63;;;;;;;27.03;55.66;101979.66;5254604;28;20025;-74
2023/08/22 11:23:25;;;;;;;4.88;1.23;;;;;;;26.98;50.16;101971.25;5254017;28;20033;-72
2023/08/22 11:25:56;;;;;;;4.40;1.13;;;;;;;26.75;48.32;101976.53;5236341;28;20035;-74
2023/08/22 11:28:32;;;;;;;2.78;0.80;;;;;;;26.80;47.64;101979.53;5234805;28;20047;-74
2023/08/22 11:31:04;;;;;;;5.95;1.30;;;;;;;26.60;50.53;101979.09;5253344;28;20067;-74
2023/08/22 11:33:45;;;;;;;1.67;0.60;;;;;;;26.72;48.29;101985.78;5252552;28;20040;-75
2023/08/22 11:36:17;;;;;;;2.88;0.82;;;;;;;26.40;46.22;101990.22;5253792;28;20371;-74
2023/08/22 11:38:49;;;;;;;5.00;0.90;;;;;;;26.36;47.08;101991.56;5253941;28;20036;-76